createdAt,value
2023-03-13T00:00:03.061Z,2.57
2023-03-13T00:02:29.690Z,2.45
2023-03-13T00:04:57.994Z,3.00
2023-03-13T00:07:24.598Z,2.38
2023-03-13T00:09:51.358Z,2.20
2023-03-13T00:12:18.147Z,1.87
2023-03-13T00:14:44.746Z,1.98
2023-03-13T00:17:14.246Z,2.20
2023-03-13T00:19:40.788Z,2.42
2023-03-13T00:22:08.943Z,2.10
2023-03-13T00:24:35.690Z,2.03
2023-03-13T00:27:02.464Z,2.20
2023-03-13T00:29:29.381Z,2.33
2023-03-13T00:31:56.159Z,2.17
2023-03-13T00:34:22.851Z,2.22
2023-03-13T00:36:49.649Z,1.73
2023-03-13T00:39:18.055Z,2.25
2023-03-13T00:41:44.729Z,1.92
2023-03-13T00:44:11.488Z,2.35
2023-03-13T00:46:38.961Z,2.00
2023-03-13T00:49:06.274Z,2.50
2023-03-13T00:51:34.063Z,1.98
2023-03-13T00:54:00.724Z,1.70
2023-03-13T00:56:29.653Z,2.00
2023-03-13T00:58:57.350Z,1.98
2023-03-13T01:01:25.725Z,2.20
2023-03-13T01:03:54.772Z,1.90
2023-03-13T01:06:23.686Z,1.80
2023-03-13T01:08:51.310Z,2.33
2023-03-13T01:11:19.803Z,2.10
2023-03-13T01:13:48.490Z,2.30
2023-03-13T01:16:17.403Z,1.92
2023-03-13T01:18:46.353Z,1.70
2023-03-13T01:21:13.450Z,2.15
2023-03-13T01:23:40.012Z,2.60
2023-03-13T01:26:07.984Z,2.40
2023-03-13T01:28:35.809Z,2.22
2023-03-13T01:31:11.926Z,2.08
2023-03-13T01:33:38.651Z,2.38
2023-03-13T01:36:06.200Z,2.30
2023-03-13T01:38:32.776Z,1.90
2023-03-13T01:40:59.708Z,2.10
2023-03-13T01:43:28.497Z,3.03
2023-03-13T01:46:00.146Z,1.80
2023-03-13T01:48:35.095Z,2.55
2023-03-13T01:51:05.615Z,2.37
2023-03-13T01:53:34.559Z,2.00
2023-03-13T01:56:06.531Z,2.10
2023-03-13T01:58:34.024Z,1.80
2023-03-13T02:01:00.890Z,1.70
2023-03-13T02:03:29.955Z,1.73
2023-03-13T02:05:59.475Z,2.22
2023-03-13T02:08:32.836Z,1.77
2023-03-13T02:11:09.309Z,2.22
2023-03-13T02:13:36.053Z,1.95
2023-03-13T02:16:03.364Z,1.80
2023-03-13T02:18:31.682Z,2.00
2023-03-13T02:21:10.072Z,2.10
2023-03-13T02:23:44.429Z,1.70
2023-03-13T02:26:13.459Z,2.03
2023-03-13T02:28:40.197Z,2.10
2023-03-13T02:31:06.952Z,2.22
2023-03-13T02:33:37.134Z,2.03
2023-03-13T02:36:05.309Z,1.50
2023-03-13T02:38:35.286Z,1.98
2023-03-13T02:41:04.428Z,1.67
2023-03-13T02:43:34.159Z,1.77
2023-03-13T02:46:02.361Z,2.22
2023-03-13T02:48:32.996Z,1.50
2023-03-13T02:51:00.926Z,1.55
2023-03-13T02:53:27.631Z,1.57
2023-03-13T02:55:54.897Z,1.63
2023-03-13T02:58:24.153Z,1.88
2023-03-13T03:00:52.612Z,1.50
2023-03-13T03:03:19.401Z,1.58
2023-03-13T03:05:46.031Z,1.47
2023-03-13T03:08:12.611Z,1.33
2023-03-13T03:10:39.584Z,1.13
2023-03-13T03:13:06.338Z,1.35
2023-03-13T03:15:33.035Z,1.70
2023-03-13T03:18:00.896Z,1.20
2023-03-13T03:20:27.526Z,1.60
2023-03-13T03:22:54.060Z,1.30
2023-03-13T03:25:20.707Z,1.35
2023-03-13T03:27:47.278Z,1.25
2023-03-13T03:30:14.554Z,1.50
2023-03-13T03:32:41.181Z,1.00
2023-03-13T03:35:09.795Z,0.82
2023-03-13T03:37:36.425Z,1.02
2023-03-13T03:40:03.377Z,1.00
2023-03-13T03:42:29.961Z,0.90
2023-03-13T03:44:56.521Z,1.23
2023-03-13T03:47:23.193Z,1.00
2023-03-13T03:49:49.780Z,1.00
2023-03-13T03:52:17.764Z,0.68
2023-03-13T03:54:44.319Z,1.10
2023-03-13T03:57:11.030Z,0.70
2023-03-13T03:59:37.592Z,0.88
2023-03-13T04:02:04.530Z,0.80
2023-03-13T04:04:31.105Z,0.80
2023-03-13T04:06:57.559Z,0.70
2023-03-13T04:09:25.520Z,1.13
2023-03-13T04:11:52.153Z,0.73
2023-03-13T04:14:18.861Z,0.70
2023-03-13T04:16:45.584Z,0.60
2023-03-13T04:19:12.129Z,0.53
2023-03-13T04:21:38.806Z,0.80
2023-03-13T04:24:05.980Z,0.57
2023-03-13T04:26:34.117Z,0.40
2023-03-13T04:29:00.665Z,0.70
2023-03-13T04:31:27.237Z,0.60
2023-03-13T04:33:53.855Z,0.60
2023-03-13T04:36:20.391Z,0.45
2023-03-13T04:38:47.033Z,0.57
2023-03-13T04:41:13.553Z,0.73
2023-03-13T04:43:41.485Z,0.70
2023-03-13T04:46:08.166Z,0.65
2023-03-13T04:48:34.716Z,0.45
2023-03-13T04:51:01.533Z,0.60
2023-03-13T04:53:28.157Z,0.50
2023-03-13T04:55:54.712Z,0.70
2023-03-13T04:58:21.514Z,0.63
2023-03-13T05:00:49.410Z,0.52
2023-03-13T05:03:16.034Z,0.55
2023-03-13T05:05:42.717Z,0.57
2023-03-13T05:08:09.273Z,0.60
2023-03-13T05:10:35.849Z,0.40
2023-03-13T05:13:02.465Z,0.40
2023-03-13T05:15:29.173Z,0.50
2023-03-13T05:17:57.172Z,0.60
2023-03-13T05:20:23.840Z,0.70
2023-03-13T05:22:50.426Z,0.60
2023-03-13T05:25:17.199Z,0.65
2023-03-13T05:27:43.759Z,1.00
2023-03-13T05:30:11.713Z,0.90
2023-03-13T05:32:38.319Z,0.67
2023-03-13T05:35:06.832Z,0.73
2023-03-13T05:37:33.470Z,1.00
2023-03-13T05:40:00.102Z,0.90
2023-03-13T05:42:26.779Z,0.85
2023-03-13T05:44:53.346Z,1.03
2023-03-13T05:47:19.988Z,1.10
2023-03-13T05:49:46.552Z,0.90
2023-03-13T05:52:14.558Z,0.88
2023-03-13T05:54:41.127Z,0.88
2023-03-13T05:57:07.747Z,1.00
2023-03-13T05:59:34.272Z,0.90
2023-03-13T06:02:00.838Z,1.00
2023-03-13T06:04:27.567Z,1.02
2023-03-13T06:06:54.246Z,0.80
2023-03-13T06:09:22.256Z,1.00
2023-03-13T06:11:49.161Z,0.90
2023-03-13T06:14:25.205Z,1.00
2023-03-13T06:16:53.853Z,0.85
2023-03-13T06:19:23.442Z,1.20
2023-03-13T06:21:50.329Z,0.80
2023-03-13T06:24:17.033Z,1.00
2023-03-13T06:26:45.097Z,0.88
2023-03-13T06:29:11.827Z,0.90
2023-03-13T06:31:38.586Z,1.00
2023-03-13T06:34:05.475Z,1.17
2023-03-13T06:36:32.067Z,0.90
2023-03-13T06:38:58.671Z,1.00
2023-03-13T06:41:25.380Z,1.00
2023-03-13T06:43:53.365Z,1.08
2023-03-13T06:46:22.331Z,1.00
2023-03-13T06:48:51.630Z,0.98
2023-03-13T06:51:20.525Z,1.25
2023-03-13T06:53:47.349Z,1.10
2023-03-13T06:56:14.549Z,0.90
2023-03-13T06:58:41.272Z,1.20
2023-03-13T07:01:11.013Z,1.20
2023-03-13T07:03:38.363Z,1.05
2023-03-13T07:06:05.859Z,0.90
2023-03-13T07:08:33.216Z,1.10
2023-03-13T07:11:01.513Z,1.50
2023-03-13T07:13:28.222Z,1.15
2023-03-13T07:15:54.839Z,1.13
2023-03-13T07:18:23.198Z,1.17
2023-03-13T07:20:53.357Z,1.20
2023-03-13T07:23:20.426Z,1.10
2023-03-13T07:25:53.278Z,1.20
2023-03-13T07:28:19.816Z,1.17
2023-03-13T07:30:46.500Z,1.33
2023-03-13T07:33:13.068Z,1.42
2023-03-13T07:35:41.300Z,1.20
2023-03-13T07:38:07.822Z,0.95
2023-03-13T07:40:34.650Z,1.20
2023-03-13T07:43:01.213Z,1.48
2023-03-13T07:45:27.991Z,1.30
2023-03-13T07:47:54.640Z,1.30
2023-03-13T07:50:21.412Z,1.48
2023-03-13T07:52:49.433Z,1.38
2023-03-13T07:55:16.042Z,1.20
2023-03-13T07:57:42.612Z,1.10
2023-03-13T08:00:10.388Z,1.30
2023-03-13T08:02:37.023Z,1.30
2023-03-13T08:05:03.869Z,1.27
2023-03-13T08:07:30.437Z,1.25
2023-03-13T08:09:58.360Z,1.10
2023-03-13T08:12:24.939Z,1.77
2023-03-13T08:14:51.493Z,1.60
2023-03-13T08:17:18.030Z,1.40
2023-03-13T08:19:44.945Z,1.70
2023-03-13T08:22:11.591Z,1.50
2023-03-13T08:24:38.251Z,1.40
2023-03-13T08:27:06.354Z,2.00
2023-03-13T08:29:33.008Z,2.45
2023-03-13T08:31:59.606Z,1.35
2023-03-13T08:34:26.156Z,1.40
2023-03-13T08:36:52.738Z,1.50
2023-03-13T08:39:20.723Z,1.45
2023-03-13T08:41:47.518Z,1.70
2023-03-13T08:44:17.998Z,1.52
2023-03-13T08:46:45.218Z,1.50
2023-03-13T08:49:12.843Z,1.83
2023-03-13T08:51:39.641Z,2.08
2023-03-13T08:54:06.652Z,1.90
2023-03-13T08:56:33.414Z,2.42
2023-03-13T08:59:01.666Z,1.52
2023-03-13T09:01:31.480Z,1.80
2023-03-13T09:03:59.940Z,1.45
2023-03-13T09:06:28.005Z,1.65
2023-03-13T09:08:56.510Z,1.73
2023-03-13T09:11:23.069Z,1.52
2023-03-13T09:13:51.386Z,1.60
2023-03-13T09:16:19.469Z,1.73
2023-03-13T09:18:47.594Z,1.80
2023-03-13T09:21:16.931Z,1.52
2023-03-13T09:23:43.834Z,1.30
2023-03-13T09:26:11.333Z,1.80
2023-03-13T09:28:38.046Z,1.95
2023-03-13T09:31:08.382Z,1.70
2023-03-13T09:33:35.141Z,1.70
2023-03-13T09:36:03.930Z,1.60
2023-03-13T09:38:30.582Z,1.10
2023-03-13T09:41:06.432Z,1.75
2023-03-13T09:43:43.791Z,1.50
2023-03-13T09:46:18.392Z,1.83
2023-03-13T09:48:49.005Z,1.30
2023-03-13T09:51:21.556Z,1.30
2023-03-13T09:53:52.125Z,1.17
2023-03-13T09:56:23.845Z,1.40
2023-03-13T09:58:54.097Z,1.23
2023-03-13T10:01:26.063Z,1.33
2023-03-13T10:04:01.226Z,1.63
2023-03-13T10:06:33.281Z,1.58
2023-03-13T10:08:59.873Z,1.30
2023-03-13T10:11:29.746Z,1.67
2023-03-13T10:14:01.101Z,1.38
2023-03-13T10:16:32.309Z,1.20
2023-03-13T10:19:07.387Z,1.42
2023-03-13T10:21:37.030Z,1.02
2023-03-13T10:24:12.035Z,1.40
2023-03-13T10:26:38.643Z,1.20
2023-03-13T10:29:20.391Z,1.40
2023-03-13T10:31:55.801Z,1.25
2023-03-13T10:34:22.692Z,1.23
2023-03-13T10:36:56.555Z,1.00
2023-03-13T10:39:24.709Z,1.17
2023-03-13T10:41:57.858Z,1.30
2023-03-13T10:44:30.998Z,1.08
2023-03-13T10:47:00.347Z,1.15
2023-03-13T10:49:27.353Z,1.15
2023-03-13T10:51:56.854Z,1.00
2023-03-13T10:54:24.836Z,1.43
2023-03-13T10:56:52.333Z,1.10
2023-03-13T10:59:22.909Z,1.30
2023-03-13T11:01:50.906Z,1.20
2023-03-13T11:04:28.752Z,1.10
2023-03-13T11:07:03.069Z,1.70
2023-03-13T11:09:29.650Z,0.90
2023-03-13T11:12:04.016Z,0.80
2023-03-13T11:14:30.642Z,1.27
2023-03-13T11:17:02.891Z,1.35
2023-03-13T11:19:41.462Z,1.03
2023-03-13T11:22:35.269Z,0.93
2023-03-13T11:25:19.131Z,0.80
2023-03-13T11:27:54.403Z,0.90
2023-03-13T11:30:41.271Z,1.02
2023-03-13T11:33:21.106Z,0.70
2023-03-13T11:35:53.941Z,1.05
2023-03-13T11:38:30.167Z,0.75
2023-03-13T11:41:08.803Z,1.10
2023-03-13T11:44:01.588Z,1.00
2023-03-13T11:46:46.124Z,0.80
2023-03-13T11:49:39.810Z,0.80
2023-03-13T11:52:16.766Z,0.80
2023-03-13T11:55:02.481Z,0.60
2023-03-13T11:57:31.875Z,0.80
2023-03-13T12:00:19.997Z,0.63
2023-03-13T12:02:51.707Z,0.90
2023-03-13T12:05:20.543Z,0.73
2023-03-13T12:07:53.363Z,0.93
2023-03-13T12:10:26.715Z,0.77
2023-03-13T12:13:01.588Z,0.80
2023-03-13T12:15:32.059Z,0.73
2023-03-13T12:18:03.392Z,0.82
2023-03-13T12:20:40.434Z,0.85
2023-03-13T12:23:18.750Z,1.00
2023-03-13T12:25:53.384Z,1.80
2023-03-13T12:28:27.091Z,0.90
2023-03-13T12:31:03.260Z,0.70
2023-03-13T12:33:35.493Z,0.80
2023-03-13T12:36:09.476Z,0.90
2023-03-13T12:38:40.275Z,0.60
2023-03-13T12:41:18.284Z,0.65
2023-03-13T12:44:04.174Z,0.60
2023-03-13T12:46:41.493Z,0.63
2023-03-13T12:49:32.286Z,0.50
2023-03-13T12:52:18.700Z,0.60
2023-03-13T12:55:06.694Z,0.70
2023-03-13T12:58:14.032Z,0.65
2023-03-13T13:00:43.834Z,0.60
2023-03-13T13:03:22.414Z,0.75
2023-03-13T13:06:01.946Z,0.57
2023-03-13T13:08:33.421Z,0.70
2023-03-13T13:11:33.137Z,0.55
2023-03-13T13:14:01.706Z,0.70
2023-03-13T13:16:29.692Z,0.70
2023-03-13T13:19:12.266Z,0.70
2023-03-13T13:21:38.984Z,0.70
2023-03-13T13:24:40.434Z,0.70
2023-03-13T13:27:45.400Z,0.90
2023-03-13T13:30:32.326Z,0.60
2023-03-13T13:33:40.426Z,0.60
2023-03-13T13:36:28.069Z,0.60
2023-03-13T13:38:55.261Z,1.05
2023-03-13T13:41:25.519Z,0.90
2023-03-13T13:44:23.833Z,0.68
2023-03-13T13:46:53.590Z,0.80
2023-03-13T13:49:21.565Z,0.70
2023-03-13T13:52:32.795Z,0.68
2023-03-13T13:54:59.550Z,0.60
2023-03-13T13:57:29.545Z,0.60
2023-03-13T14:00:01.662Z,0.70
2023-03-13T14:02:34.751Z,1.17
2023-03-13T14:05:04.367Z,0.70
2023-03-13T14:07:44.696Z,0.90
2023-03-13T14:10:28.936Z,0.80
2023-03-13T14:12:57.736Z,0.83
2023-03-13T14:15:25.674Z,0.90
2023-03-13T14:17:57.061Z,0.73
2023-03-13T14:20:33.181Z,0.88
2023-03-13T14:23:01.840Z,0.80
2023-03-13T14:25:40.646Z,1.07
2023-03-13T14:28:16.573Z,0.70
2023-03-13T14:30:43.419Z,0.80
2023-03-13T14:33:11.787Z,0.82
2023-03-13T14:35:39.873Z,0.80
2023-03-13T14:38:07.010Z,0.70
2023-03-13T14:40:38.740Z,0.70
2023-03-13T14:43:22.112Z,0.80
2023-03-13T14:45:49.591Z,0.90
2023-03-13T14:48:21.406Z,0.75
2023-03-13T14:50:50.307Z,0.80
2023-03-13T14:53:19.235Z,0.80
2023-03-13T14:55:46.156Z,0.80
2023-03-13T14:58:27.569Z,1.25
2023-03-13T15:00:55.003Z,1.33
2023-03-13T15:03:28.991Z,1.50
2023-03-13T15:06:22.260Z,0.82
2023-03-13T15:09:07.543Z,1.40
2023-03-13T15:11:34.219Z,0.88
2023-03-13T15:14:01.389Z,1.33
2023-03-13T15:16:28.900Z,1.40
2023-03-13T15:18:57.387Z,1.35
2023-03-13T15:21:27.431Z,1.15
2023-03-13T15:23:56.147Z,1.45
2023-03-13T15:26:23.409Z,1.45
2023-03-13T15:28:50.024Z,1.60
2023-03-13T15:31:16.800Z,1.45
2023-03-13T15:33:43.915Z,1.45
2023-03-13T15:36:12.098Z,1.25
2023-03-13T15:38:39.170Z,1.20
2023-03-13T15:41:06.140Z,0.87
2023-03-13T15:43:32.744Z,0.93
2023-03-13T15:45:59.331Z,1.50
2023-03-13T15:48:27.995Z,1.20
2023-03-13T15:50:56.567Z,1.40
2023-03-13T15:53:26.336Z,1.47
2023-03-13T15:55:54.859Z,1.20
2023-03-13T15:58:21.527Z,1.52
2023-03-13T16:00:48.577Z,1.83
2023-03-13T16:03:16.404Z,1.60
2023-03-13T16:05:43.508Z,1.33
2023-03-13T16:08:20.566Z,1.35
2023-03-13T16:10:55.115Z,1.40
2023-03-13T16:13:21.776Z,1.38
2023-03-13T16:15:48.476Z,1.80
2023-03-13T16:18:20.499Z,0.90
2023-03-13T16:20:47.424Z,1.27
2023-03-13T16:23:14.519Z,1.20
2023-03-13T16:25:41.180Z,1.17
2023-03-13T16:28:11.712Z,1.00
2023-03-13T16:30:39.334Z,1.03
2023-03-13T16:33:06.026Z,0.77
2023-03-13T16:35:33.709Z,1.25
2023-03-13T16:38:00.616Z,0.98
2023-03-13T16:40:30.221Z,1.00
2023-03-13T16:42:56.811Z,1.27
2023-03-13T16:45:25.058Z,1.60
2023-03-13T16:47:51.746Z,1.00
2023-03-13T16:50:25.344Z,1.25
2023-03-13T16:52:52.422Z,1.27
2023-03-13T16:55:19.886Z,1.10
2023-03-13T16:57:46.595Z,1.00
2023-03-13T17:00:16.788Z,1.40
2023-03-13T17:02:45.149Z,1.85
2023-03-13T17:05:12.286Z,1.08
2023-03-13T17:07:38.924Z,1.00
2023-03-13T17:10:16.170Z,1.00
2023-03-13T17:12:42.803Z,1.10
2023-03-13T17:15:10.214Z,1.23
2023-03-13T17:17:37.987Z,1.50
2023-03-13T17:20:07.440Z,1.33
2023-03-13T17:22:34.037Z,1.20
2023-03-13T17:25:00.572Z,1.60
2023-03-13T17:27:27.160Z,1.30
2023-03-13T17:29:53.724Z,1.10
2023-03-13T17:32:20.323Z,1.47
2023-03-13T17:34:47.001Z,1.00
2023-03-13T17:37:17.443Z,1.02
2023-03-13T17:43:02.705Z,0.80
2023-03-13T17:45:29.652Z,0.80
2023-03-13T17:47:56.224Z,0.90
2023-03-13T17:50:24.926Z,1.00
2023-03-13T17:52:53.270Z,1.08
2023-03-13T17:55:20.577Z,1.10
2023-03-13T17:57:47.747Z,1.30
2023-03-13T18:00:22.352Z,1.17
2023-03-13T18:02:49.574Z,1.52
2023-03-13T18:05:16.545Z,1.40
2023-03-13T18:07:43.364Z,1.20
2023-03-13T18:10:22.793Z,1.17
2023-03-13T18:12:49.606Z,1.15
2023-03-13T18:15:19.683Z,1.15
2023-03-13T18:17:46.451Z,1.00
2023-03-13T18:20:17.804Z,1.10
2023-03-13T18:22:44.455Z,1.20
2023-03-13T18:25:11.259Z,0.82
2023-03-13T18:27:39.421Z,1.27
2023-03-13T18:30:14.591Z,1.20
2023-03-13T18:32:41.251Z,1.80
2023-03-13T18:35:08.992Z,1.97
2023-03-13T18:37:35.777Z,1.60
2023-03-13T18:40:02.565Z,1.33
2023-03-13T18:42:29.173Z,1.42
2023-03-13T18:44:57.292Z,1.15
2023-03-13T18:47:23.910Z,1.23
2023-03-13T18:49:51.281Z,1.08
2023-03-13T18:52:18.628Z,1.40
2023-03-13T18:54:45.443Z,1.02
2023-03-13T18:57:14.434Z,1.23
2023-03-13T18:59:45.168Z,1.07
2023-03-13T19:02:15.152Z,1.10
2023-03-13T19:04:45.278Z,1.30
2023-03-13T19:07:14.476Z,0.90
2023-03-13T19:09:46.627Z,1.17
2023-03-13T19:12:14.194Z,1.13
2023-03-13T19:14:43.699Z,1.00
2023-03-13T19:17:18.977Z,1.50
2023-03-13T19:19:45.889Z,1.00
2023-03-13T19:22:17.932Z,1.40
2023-03-13T19:25:03.206Z,1.30
2023-03-13T19:27:34.858Z,1.33
2023-03-13T19:30:01.531Z,1.20
2023-03-13T19:32:55.494Z,1.40
2023-03-13T19:35:22.552Z,1.30
2023-03-13T19:37:51.010Z,1.00
2023-03-13T19:40:20.456Z,1.27
2023-03-13T19:42:47.361Z,1.30
2023-03-13T19:45:14.379Z,1.20
2023-03-13T19:47:41.066Z,1.05
2023-03-13T19:50:24.364Z,1.40
2023-03-13T19:52:51.160Z,1.20
2023-03-13T19:55:18.088Z,1.48
2023-03-13T19:57:44.983Z,1.88
2023-03-13T20:00:18.750Z,1.65
2023-03-13T20:02:45.862Z,1.90
2023-03-13T20:05:14.163Z,1.65
2023-03-13T20:07:41.069Z,1.98
2023-03-13T20:10:36.440Z,1.60
2023-03-13T20:13:05.504Z,1.63
2023-03-13T20:15:38.232Z,2.00
2023-03-13T20:18:10.212Z,1.45
2023-03-13T20:21:16.842Z,1.30
2023-03-13T20:24:11.069Z,1.15
2023-03-13T20:26:44.212Z,1.50
2023-03-13T20:29:17.305Z,1.43
2023-03-13T20:31:44.764Z,1.40
2023-03-13T20:36:56.468Z,1.30
2023-03-13T20:39:23.378Z,1.30
2023-03-13T20:41:50.733Z,1.60
2023-03-13T20:44:20.446Z,1.08
2023-03-13T20:46:49.333Z,1.10
2023-03-13T20:49:18.996Z,1.15
2023-03-13T20:51:46.268Z,1.10
2023-03-13T20:54:18.760Z,1.07
2023-03-13T20:56:45.592Z,1.30
2023-03-13T20:59:12.298Z,1.42
2023-03-13T21:01:39.646Z,1.50
2023-03-13T21:04:06.344Z,1.30
2023-03-13T21:06:33.120Z,1.20
2023-03-13T21:09:00.375Z,1.10
2023-03-13T21:11:41.742Z,1.17
2023-03-13T21:14:08.379Z,1.20
2023-03-13T21:16:35.806Z,1.30
2023-03-13T21:19:02.867Z,1.23
2023-03-13T21:21:29.500Z,1.20
2023-03-13T21:23:58.683Z,1.27
2023-03-13T21:26:26.201Z,1.20
2023-03-13T21:29:06.251Z,1.25
2023-03-13T21:31:33.588Z,1.10
2023-03-13T21:34:04.888Z,1.17
2023-03-13T21:36:33.275Z,1.17
2023-03-13T21:39:01.486Z,1.30
2023-03-13T21:41:28.402Z,1.10
2023-03-13T21:43:58.532Z,1.50
2023-03-13T21:46:27.925Z,1.20
2023-03-13T21:48:54.584Z,1.15
2023-03-13T21:51:23.669Z,1.08
2023-03-13T21:57:11.213Z,1.30
2023-03-13T21:59:45.441Z,1.00
2023-03-13T22:02:17.153Z,1.05
2023-03-13T22:04:44.012Z,0.95
2023-03-13T22:07:13.605Z,0.90
2023-03-13T22:09:41.375Z,1.20
2023-03-13T22:12:09.446Z,1.08
2023-03-13T22:14:36.370Z,1.10
2023-03-13T22:17:04.675Z,1.10
2023-03-13T22:19:31.300Z,1.40
2023-03-13T22:22:02.551Z,1.10
2023-03-13T22:24:31.737Z,1.00
2023-03-13T22:27:02.092Z,1.17
2023-03-13T22:29:30.770Z,1.08
2023-03-13T22:31:59.464Z,1.02
2023-03-13T22:34:28.160Z,1.00
2023-03-13T22:36:54.800Z,1.20
2023-03-13T22:39:21.608Z,1.00
2023-03-13T22:41:48.392Z,1.23
2023-03-13T22:44:15.021Z,0.80
2023-03-13T22:46:41.784Z,1.20
2023-03-13T22:49:08.528Z,0.93
2023-03-13T22:51:36.615Z,1.23
2023-03-13T22:54:03.239Z,1.15
2023-03-13T22:56:29.956Z,1.10
2023-03-13T22:58:56.687Z,1.33
2023-03-13T23:01:23.304Z,1.10
2023-03-13T23:03:50.088Z,1.00
2023-03-13T23:06:18.717Z,1.05
2023-03-13T23:08:47.192Z,0.80
2023-03-13T23:11:14.050Z,1.03
2023-03-13T23:13:40.894Z,0.80
2023-03-13T23:16:09.601Z,0.73
2023-03-13T23:18:36.970Z,0.93
2023-03-13T23:21:04.697Z,0.90
2023-03-13T23:23:31.630Z,0.90
2023-03-13T23:26:00.407Z,0.90
2023-03-13T23:28:27.388Z,0.90
2023-03-13T23:30:54.063Z,1.02
2023-03-13T23:33:20.849Z,1.10
2023-03-13T23:35:47.461Z,1.00
2023-03-13T23:38:14.474Z,0.98
2023-03-13T23:40:41.047Z,0.88
2023-03-13T23:43:09.064Z,0.95
2023-03-13T23:45:36.099Z,0.90
2023-03-13T23:48:02.752Z,0.83
2023-03-13T23:50:29.737Z,1.20
2023-03-13T23:52:56.355Z,0.82
2023-03-13T23:55:23.007Z,1.10
2023-03-13T23:57:49.833Z,0.70
